sensor_id;sensor_type;location;lat;lon;timestamp;pressure;altitude;pressure_sealevel;temperature;humidity
56330;BME280;42236;48.058;10.632;2023-01-31T00:00:32;95415.22;;;0.59;92.58
56330;BME280;42236;48.058;10.632;2023-01-31T00:03:18;95416.25;;;0.58;92.60
56330;BME280;42236;48.058;10.632;2023-01-31T00:06:21;95416.78;;;0.55;92.52
56330;BME280;42236;48.058;10.632;2023-01-31T00:09:09;95424.19;;;0.53;92.63
56330;BME280;42236;48.058;10.632;2023-01-31T00:11:55;95427.91;;;0.52;93.01
56330;BME280;42236;48.058;10.632;2023-01-31T00:14:41;95414.91;;;0.50;92.67
56330;BME280;42236;48.058;10.632;2023-01-31T00:17:27;95420.44;;;0.44;92.97
56330;BME280;42236;48.058;10.632;2023-01-31T00:20:12;95420.97;;;0.46;92.78
56330;BME280;42236;48.058;10.632;2023-01-31T00:22:58;95424.66;;;0.39;92.98
56330;BME280;42236;48.058;10.632;2023-01-31T00:25:44;95420.91;;;0.35;93.35
56330;BME280;42236;48.058;10.632;2023-01-31T00:28:29;95421.16;;;0.34;93.38
56330;BME280;42236;48.058;10.632;2023-01-31T00:31:16;95428.31;;;0.33;93.43
56330;BME280;42236;48.058;10.632;2023-01-31T00:34:02;95422.47;;;0.31;93.24
56330;BME280;42236;48.058;10.632;2023-01-31T00:36:48;95417.16;;;0.31;93.13
56330;BME280;42236;48.058;10.632;2023-01-31T00:39:33;95402.03;;;0.27;92.96
56330;BME280;42236;48.058;10.632;2023-01-31T00:42:19;95401.72;;;0.18;93.40
56330;BME280;42236;48.058;10.632;2023-01-31T00:45:05;95412.56;;;0.16;93.32
56330;BME280;42236;48.058;10.632;2023-01-31T00:47:51;95419.47;;;0.12;93.63
56330;BME280;42236;48.058;10.632;2023-01-31T00:50:37;95413.31;;;0.12;93.29
56330;BME280;42236;48.058;10.632;2023-01-31T00:53:22;95412.81;;;0.10;93.40
56330;BME280;42236;48.058;10.632;2023-01-31T00:56:14;95413.25;;;0.02;93.16
56330;BME280;42236;48.058;10.632;2023-01-31T00:59:00;95411.69;;;0.01;93.60
56330;BME280;42236;48.058;10.632;2023-01-31T01:01:48;95420.13;;;-0.03;93.69
56330;BME280;42236;48.058;10.632;2023-01-31T01:04:34;95431.00;;;-0.04;93.60
56330;BME280;42236;48.058;10.632;2023-01-31T01:07:20;95418.28;;;-0.02;93.27
56330;BME280;42236;48.058;10.632;2023-01-31T01:10:06;95419.09;;;-0.02;93.72
56330;BME280;42236;48.058;10.632;2023-01-31T01:12:52;95422.78;;;-0.03;93.51
56330;BME280;42236;48.058;10.632;2023-01-31T01:15:37;95426.25;;;-0.02;94.08
56330;BME280;42236;48.058;10.632;2023-01-31T01:18:23;95426.28;;;0.03;93.85
56330;BME280;42236;48.058;10.632;2023-01-31T01:21:12;95424.97;;;0.06;93.48
56330;BME280;42236;48.058;10.632;2023-01-31T01:23:59;95423.34;;;0.05;93.76
56330;BME280;42236;48.058;10.632;2023-01-31T01:26:46;95411.16;;;0.04;93.64
56330;BME280;42236;48.058;10.632;2023-01-31T01:29:31;95419.13;;;0.04;93.64
56330;BME280;42236;48.058;10.632;2023-01-31T01:32:18;95413.56;;;0.05;93.67
56330;BME280;42236;48.058;10.632;2023-01-31T01:35:04;95418.91;;;0.10;93.56
56330;BME280;42236;48.058;10.632;2023-01-31T01:37:49;95422.31;;;0.06;93.58
56330;BME280;42236;48.058;10.632;2023-01-31T01:40:36;95419.66;;;0.06;93.37
56330;BME280;42236;48.058;10.632;2023-01-31T01:46:33;95423.84;;;-0.04;94.12
56330;BME280;42236;48.058;10.632;2023-01-31T01:49:31;95423.59;;;-0.02;93.92
56330;BME280;42236;48.058;10.632;2023-01-31T01:52:18;95422.53;;;-0.01;94.12
56330;BME280;42236;48.058;10.632;2023-01-31T01:55:44;95419.09;;;-0.02;93.90
56330;BME280;42236;48.058;10.632;2023-01-31T01:58:53;95422.28;;;0.01;93.46
56330;BME280;42236;48.058;10.632;2023-01-31T02:01:41;95423.88;;;0.02;93.24
56330;BME280;42236;48.058;10.632;2023-01-31T02:04:31;95420.66;;;-0.01;93.55
56330;BME280;42236;48.058;10.632;2023-01-31T02:07:18;95425.97;;;-0.01;93.12
56330;BME280;42236;48.058;10.632;2023-01-31T02:10:16;95426.50;;;-0.04;93.21
56330;BME280;42236;48.058;10.632;2023-01-31T02:13:04;95429.09;;;-0.09;93.26
56330;BME280;42236;48.058;10.632;2023-01-31T02:15:49;95440.22;;;-0.12;92.92
56330;BME280;42236;48.058;10.632;2023-01-31T02:18:35;95437.53;;;-0.17;92.96
56330;BME280;42236;48.058;10.632;2023-01-31T02:21:51;95437.78;;;-0.18;93.17
56330;BME280;42236;48.058;10.632;2023-01-31T02:37:36;95439.94;;;-0.43;93.13
56330;BME280;42236;48.058;10.632;2023-01-31T02:40:49;95444.69;;;-0.45;92.73
56330;BME280;42236;48.058;10.632;2023-01-31T02:47:06;95442.03;;;-0.45;92.94
56330;BME280;42236;48.058;10.632;2023-01-31T02:50:00;95447.06;;;-0.48;93.24
56330;BME280;42236;48.058;10.632;2023-01-31T02:52:58;95434.59;;;-0.48;93.03
56330;BME280;42236;48.058;10.632;2023-01-31T02:56:00;95447.31;;;-0.50;93.16
56330;BME280;42236;48.058;10.632;2023-01-31T02:59:06;95448.84;;;-0.54;93.13
56330;BME280;42236;48.058;10.632;2023-01-31T03:01:59;95452.56;;;-0.55;93.15
56330;BME280;42236;48.058;10.632;2023-01-31T03:04:46;95455.75;;;-0.53;93.27
56330;BME280;42236;48.058;10.632;2023-01-31T03:07:35;95449.34;;;-0.57;93.44
56330;BME280;42236;48.058;10.632;2023-01-31T03:10:43;95454.66;;;-0.57;93.40
56330;BME280;42236;48.058;10.632;2023-01-31T03:14:09;95462.34;;;-0.55;93.49
56330;BME280;42236;48.058;10.632;2023-01-31T03:16:58;95456.25;;;-0.56;93.49
56330;BME280;42236;48.058;10.632;2023-01-31T03:20:12;95459.41;;;-0.59;93.44
56330;BME280;42236;48.058;10.632;2023-01-31T03:23:04;95453.53;;;-0.61;93.53
56330;BME280;42236;48.058;10.632;2023-01-31T03:25:51;95443.72;;;-0.60;93.50
56330;BME280;42236;48.058;10.632;2023-01-31T03:28:38;95444.25;;;-0.63;93.54
56330;BME280;42236;48.058;10.632;2023-01-31T03:31:31;95460.13;;;-0.63;93.57
56330;BME280;42236;48.058;10.632;2023-01-31T03:34:19;95460.94;;;-0.63;93.55
56330;BME280;42236;48.058;10.632;2023-01-31T03:37:23;95467.06;;;-0.62;93.61
56330;BME280;42236;48.058;10.632;2023-01-31T03:40:13;95473.94;;;-0.61;93.48
56330;BME280;42236;48.058;10.632;2023-01-31T03:46:14;95472.59;;;-0.64;93.20
56330;BME280;42236;48.058;10.632;2023-01-31T03:49:04;95471.06;;;-0.60;93.14
56330;BME280;42236;48.058;10.632;2023-01-31T03:51:59;95466.78;;;-0.61;92.99
56330;BME280;42236;48.058;10.632;2023-01-31T03:54:50;95480.53;;;-0.64;92.57
56330;BME280;42236;48.058;10.632;2023-01-31T03:57:39;95482.91;;;-0.68;92.70
56330;BME280;42236;48.058;10.632;2023-01-31T04:00:28;95482.63;;;-0.66;92.83
56330;BME280;42236;48.058;10.632;2023-01-31T04:03:19;95483.13;;;-0.69;92.70
56330;BME280;42236;48.058;10.632;2023-01-31T04:06:09;95476.78;;;-0.68;92.68
56330;BME280;42236;48.058;10.632;2023-01-31T04:08:55;95483.44;;;-0.66;92.82
56330;BME280;42236;48.058;10.632;2023-01-31T04:11:41;95489.59;;;-0.60;92.78
56330;BME280;42236;48.058;10.632;2023-01-31T04:14:27;95495.94;;;-0.61;92.57
56330;BME280;42236;48.058;10.632;2023-01-31T04:17:13;95494.34;;;-0.62;92.60
56330;BME280;42236;48.058;10.632;2023-01-31T04:19:59;95491.13;;;-0.64;92.56
56330;BME280;42236;48.058;10.632;2023-01-31T04:22:44;95493.56;;;-0.62;92.08
56330;BME280;42236;48.058;10.632;2023-01-31T04:25:30;95500.94;;;-0.65;92.31
56330;BME280;42236;48.058;10.632;2023-01-31T04:28:16;95505.44;;;-0.65;92.32
56330;BME280;42236;48.058;10.632;2023-01-31T04:31:01;95507.53;;;-0.67;92.40
56330;BME280;42236;48.058;10.632;2023-01-31T04:33:47;95503.22;;;-0.73;92.28
56330;BME280;42236;48.058;10.632;2023-01-31T04:36:33;95507.97;;;-0.75;92.62
56330;BME280;42236;48.058;10.632;2023-01-31T04:39:18;95518.50;;;-0.80;92.48
56330;BME280;42236;48.058;10.632;2023-01-31T04:42:04;95511.34;;;-0.80;92.72
56330;BME280;42236;48.058;10.632;2023-01-31T04:44:50;95520.13;;;-0.79;92.49
56330;BME280;42236;48.058;10.632;2023-01-31T04:47:35;95520.13;;;-0.79;92.57
56330;BME280;42236;48.058;10.632;2023-01-31T04:50:21;95511.09;;;-0.78;92.35
56330;BME280;42236;48.058;10.632;2023-01-31T04:53:07;95527.78;;;-0.78;92.13
56330;BME280;42236;48.058;10.632;2023-01-31T04:55:53;95526.72;;;-0.82;92.13
56330;BME280;42236;48.058;10.632;2023-01-31T04:58:39;95529.59;;;-0.83;92.07
56330;BME280;42236;48.058;10.632;2023-01-31T05:01:26;95528.25;;;-0.86;92.21
56330;BME280;42236;48.058;10.632;2023-01-31T05:04:11;95535.38;;;-0.87;92.26
56330;BME280;42236;48.058;10.632;2023-01-31T05:06:57;95543.56;;;-0.88;92.31
56330;BME280;42236;48.058;10.632;2023-01-31T05:09:43;95537.47;;;-0.89;92.31
56330;BME280;42236;48.058;10.632;2023-01-31T05:12:29;95544.88;;;-0.91;92.25
56330;BME280;42236;48.058;10.632;2023-01-31T05:15:15;95544.31;;;-0.93;92.08
56330;BME280;42236;48.058;10.632;2023-01-31T05:18:01;95543.75;;;-0.95;92.30
56330;BME280;42236;48.058;10.632;2023-01-31T05:20:47;95536.28;;;-0.98;92.16
56330;BME280;42236;48.058;10.632;2023-01-31T05:23:34;95534.72;;;-0.99;92.33
56330;BME280;42236;48.058;10.632;2023-01-31T05:26:20;95529.31;;;-1.04;92.32
56330;BME280;42236;48.058;10.632;2023-01-31T05:29:06;95531.72;;;-1.02;92.38
56330;BME280;42236;48.058;10.632;2023-01-31T05:31:53;95545.19;;;-1.04;92.18
56330;BME280;42236;48.058;10.632;2023-01-31T05:34:39;95554.22;;;-1.05;92.43
56330;BME280;42236;48.058;10.632;2023-01-31T05:37:25;95562.72;;;-1.03;92.20
56330;BME280;42236;48.058;10.632;2023-01-31T05:40:13;95561.59;;;-1.07;92.20
56330;BME280;42236;48.058;10.632;2023-01-31T05:43:00;95570.09;;;-1.05;92.35
56330;BME280;42236;48.058;10.632;2023-01-31T05:45:47;95572.50;;;-1.03;92.02
56330;BME280;42236;48.058;10.632;2023-01-31T05:48:33;95574.59;;;-1.05;91.94
56330;BME280;42236;48.058;10.632;2023-01-31T05:51:19;95569.53;;;-1.07;91.92
56330;BME280;42236;48.058;10.632;2023-01-31T05:54:05;95576.91;;;-1.09;91.99
56330;BME280;42236;48.058;10.632;2023-01-31T05:56:51;95576.44;;;-1.06;92.00
56330;BME280;42236;48.058;10.632;2023-01-31T05:59:36;95567.69;;;-1.07;92.12
56330;BME280;42236;48.058;10.632;2023-01-31T06:02:22;95570.59;;;-1.08;92.04
56330;BME280;42236;48.058;10.632;2023-01-31T06:05:08;95565.28;;;-1.08;92.03
56330;BME280;42236;48.058;10.632;2023-01-31T06:07:54;95572.66;;;-1.10;91.86
56330;BME280;42236;48.058;10.632;2023-01-31T06:10:40;95560.50;;;-1.11;92.07
56330;BME280;42236;48.058;10.632;2023-01-31T06:13:25;95557.28;;;-1.13;92.08
56330;BME280;42236;48.058;10.632;2023-01-31T06:16:11;95554.88;;;-1.15;91.76
56330;BME280;42236;48.058;10.632;2023-01-31T06:18:57;95552.72;;;-1.18;91.89
56330;BME280;42236;48.058;10.632;2023-01-31T06:21:43;95540.78;;;-1.20;91.88
56330;BME280;42236;48.058;10.632;2023-01-31T06:24:28;95548.72;;;-1.20;92.03
56330;BME280;42236;48.058;10.632;2023-01-31T06:27:14;95542.59;;;-1.21;91.82
56330;BME280;42236;48.058;10.632;2023-01-31T06:29:59;95552.38;;;-1.21;91.76
56330;BME280;42236;48.058;10.632;2023-01-31T06:32:46;95553.66;;;-1.24;91.89
56330;BME280;42236;48.058;10.632;2023-01-31T06:35:31;95566.59;;;-1.27;91.89
56330;BME280;42236;48.058;10.632;2023-01-31T06:38:18;95559.22;;;-1.25;91.85
56330;BME280;42236;48.058;10.632;2023-01-31T06:41:03;95564.53;;;-1.25;91.97
56330;BME280;42236;48.058;10.632;2023-01-31T06:43:49;95566.34;;;-1.26;91.71
56330;BME280;42236;48.058;10.632;2023-01-31T06:46:35;95573.25;;;-1.25;91.64
56330;BME280;42236;48.058;10.632;2023-01-31T06:49:21;95569.00;;;-1.26;91.75
56330;BME280;42236;48.058;10.632;2023-01-31T06:52:07;95585.13;;;-1.27;91.67
56330;BME280;42236;48.058;10.632;2023-01-31T06:54:52;95585.13;;;-1.27;91.70
56330;BME280;42236;48.058;10.632;2023-01-31T06:57:47;95586.16;;;-1.29;91.47
56330;BME280;42236;48.058;10.632;2023-01-31T07:00:33;95595.16;;;-1.30;91.62
56330;BME280;42236;48.058;10.632;2023-01-31T07:03:19;95588.25;;;-1.31;91.22
56330;BME280;42236;48.058;10.632;2023-01-31T07:06:05;95590.88;;;-1.31;91.37
56330;BME280;42236;48.058;10.632;2023-01-31T07:08:51;95591.72;;;-1.30;91.85
56330;BME280;42236;48.058;10.632;2023-01-31T07:11:37;95593.53;;;-1.31;91.47
56330;BME280;42236;48.058;10.632;2023-01-31T07:14:22;95595.94;;;-1.29;91.86
56330;BME280;42236;48.058;10.632;2023-01-31T07:17:08;95599.97;;;-1.26;91.86
56330;BME280;42236;48.058;10.632;2023-01-31T07:19:54;95598.44;;;-1.22;91.56
56330;BME280;42236;48.058;10.632;2023-01-31T07:22:39;95601.41;;;-1.19;91.60
56330;BME280;42236;48.058;10.632;2023-01-31T07:25:25;95600.94;;;-1.16;91.50
56330;BME280;42236;48.058;10.632;2023-01-31T07:28:11;95600.22;;;-1.11;91.55
56330;BME280;42236;48.058;10.632;2023-01-31T07:31:10;95594.41;;;-1.08;91.21
56330;BME280;42236;48.058;10.632;2023-01-31T07:33:56;95608.75;;;-1.04;91.36
56330;BME280;42236;48.058;10.632;2023-01-31T07:36:42;95602.50;;;-0.98;91.32
56330;BME280;42236;48.058;10.632;2023-01-31T07:39:28;95608.91;;;-0.94;91.06
56330;BME280;42236;48.058;10.632;2023-01-31T07:42:14;95604.25;;;-0.87;90.92
56330;BME280;42236;48.058;10.632;2023-01-31T07:44:59;95600.63;;;-0.80;90.65
56330;BME280;42236;48.058;10.632;2023-01-31T07:47:45;95600.16;;;-0.77;90.22
56330;BME280;42236;48.058;10.632;2023-01-31T07:50:31;95597.63;;;-0.67;90.38
56330;BME280;42236;48.058;10.632;2023-01-31T07:53:17;95593.97;;;-0.61;90.04
56330;BME280;42236;48.058;10.632;2023-01-31T07:56:11;95590.91;;;-0.53;89.87
56330;BME280;42236;48.058;10.632;2023-01-31T07:58:58;95590.47;;;-0.45;89.68
56330;BME280;42236;48.058;10.632;2023-01-31T08:01:44;95589.50;;;-0.38;89.49
56330;BME280;42236;48.058;10.632;2023-01-31T08:04:48;95588.25;;;-0.31;89.25
56330;BME280;42236;48.058;10.632;2023-01-31T08:07:34;95588.53;;;-0.27;88.59
56330;BME280;42236;48.058;10.632;2023-01-31T08:10:19;95587.56;;;-0.21;88.24
56330;BME280;42236;48.058;10.632;2023-01-31T08:13:05;95584.97;;;-0.16;88.46
56330;BME280;42236;48.058;10.632;2023-01-31T08:15:52;95591.38;;;-0.12;88.21
56330;BME280;42236;48.058;10.632;2023-01-31T08:18:38;95595.38;;;-0.09;87.56
56330;BME280;42236;48.058;10.632;2023-01-31T08:21:23;95589.34;;;-0.05;87.79
56330;BME280;42236;48.058;10.632;2023-01-31T08:24:09;95587.22;;;-0.03;87.36
56330;BME280;42236;48.058;10.632;2023-01-31T08:26:56;95588.31;;;0.02;87.68
56330;BME280;42236;48.058;10.632;2023-01-31T08:29:41;95582.97;;;-0.04;87.40
56330;BME280;42236;48.058;10.632;2023-01-31T08:32:27;95588.84;;;-0.02;87.11
56330;BME280;42236;48.058;10.632;2023-01-31T08:35:13;95593.94;;;0.05;87.19
56330;BME280;42236;48.058;10.632;2023-01-31T08:37:58;95598.50;;;0.10;86.83
56330;BME280;42236;48.058;10.632;2023-01-31T08:40:44;95600.44;;;0.19;87.21
56330;BME280;42236;48.058;10.632;2023-01-31T08:43:30;95598.94;;;0.29;86.08
56330;BME280;42236;48.058;10.632;2023-01-31T08:46:17;95611.81;;;0.42;86.04
56330;BME280;42236;48.058;10.632;2023-01-31T08:49:04;95605.03;;;0.56;85.67
56330;BME280;42236;48.058;10.632;2023-01-31T08:51:50;95597.94;;;0.67;85.94
56330;BME280;42236;48.058;10.632;2023-01-31T08:54:36;95599.63;;;0.78;85.49
56330;BME280;42236;48.058;10.632;2023-01-31T08:57:21;95597.50;;;0.80;85.83
56330;BME280;42236;48.058;10.632;2023-01-31T09:00:08;95593.56;;;0.88;85.84
56330;BME280;42236;48.058;10.632;2023-01-31T09:02:56;95597.09;;;0.99;85.15
56330;BME280;42236;48.058;10.632;2023-01-31T09:05:42;95607.53;;;1.11;85.45
56330;BME280;42236;48.058;10.632;2023-01-31T09:08:28;95607.84;;;1.19;84.66
56330;BME280;42236;48.058;10.632;2023-01-31T09:11:14;95618.53;;;1.30;84.13
56330;BME280;42236;48.058;10.632;2023-01-31T09:14:03;95606.53;;;1.22;82.75
56330;BME280;42236;48.058;10.632;2023-01-31T09:16:48;95604.06;;;1.10;82.74
56330;BME280;42236;48.058;10.632;2023-01-31T09:19:34;95592.66;;;1.10;81.91
56330;BME280;42236;48.058;10.632;2023-01-31T09:22:20;95598.75;;;1.10;81.94
56330;BME280;42236;48.058;10.632;2023-01-31T09:25:07;95594.00;;;1.12;81.71
56330;BME280;42236;48.058;10.632;2023-01-31T09:27:53;95594.00;;;1.12;82.10
56330;BME280;42236;48.058;10.632;2023-01-31T09:30:39;95596.34;;;1.09;81.86
56330;BME280;42236;48.058;10.632;2023-01-31T09:33:25;95603.81;;;1.06;81.98
56330;BME280;42236;48.058;10.632;2023-01-31T09:36:21;95610.19;;;1.11;81.83
56330;BME280;42236;48.058;10.632;2023-01-31T09:39:10;95596.69;;;1.17;82.59
56330;BME280;42236;48.058;10.632;2023-01-31T09:42:00;95603.56;;;1.13;82.35
56330;BME280;42236;48.058;10.632;2023-01-31T09:45:03;95591.88;;;1.09;81.96
56330;BME280;42236;48.058;10.632;2023-01-31T09:47:51;95602.75;;;1.13;82.78
56330;BME280;42236;48.058;10.632;2023-01-31T09:50:45;95598.03;;;1.20;83.20
56330;BME280;42236;48.058;10.632;2023-01-31T09:53:35;95599.94;;;1.30;83.48
56330;BME280;42236;48.058;10.632;2023-01-31T09:56:41;95602.38;;;1.36;82.65
56330;BME280;42236;48.058;10.632;2023-01-31T10:03:18;95608.25;;;1.43;82.30
56330;BME280;42236;48.058;10.632;2023-01-31T10:06:20;95605.31;;;1.45;82.40
56330;BME280;42236;48.058;10.632;2023-01-31T10:09:25;95609.88;;;1.49;83.02
56330;BME280;42236;48.058;10.632;2023-01-31T10:12:19;95609.13;;;1.59;82.12
56330;BME280;42236;48.058;10.632;2023-01-31T10:15:16;95601.69;;;1.66;81.50
56330;BME280;42236;48.058;10.632;2023-01-31T10:18:28;95604.69;;;1.80;81.72
56330;BME280;42236;48.058;10.632;2023-01-31T10:21:20;95590.88;;;1.88;81.84
56330;BME280;42236;48.058;10.632;2023-01-31T10:24:15;95589.59;;;1.96;81.72
56330;BME280;42236;48.058;10.632;2023-01-31T10:27:11;95587.97;;;1.95;81.46
56330;BME280;42236;48.058;10.632;2023-01-31T10:30:00;95585.31;;;1.90;81.66
56330;BME280;42236;48.058;10.632;2023-01-31T10:32:59;95577.31;;;1.85;80.79
56330;BME280;42236;48.058;10.632;2023-01-31T10:35:47;95569.00;;;1.71;81.40
56330;BME280;42236;48.058;10.632;2023-01-31T10:42:24;95563.34;;;1.52;81.98
56330;BME280;42236;48.058;10.632;2023-01-31T10:45:21;95560.75;;;1.62;82.06
56330;BME280;42236;48.058;10.632;2023-01-31T10:48:20;95558.88;;;1.63;81.08
56330;BME280;42236;48.058;10.632;2023-01-31T10:51:23;95549.56;;;1.60;81.63
56330;BME280;42236;48.058;10.632;2023-01-31T10:54:37;95544.25;;;1.55;80.93
56330;BME280;42236;48.058;10.632;2023-01-31T10:57:25;95542.94;;;1.63;81.24
56330;BME280;42236;48.058;10.632;2023-01-31T11:00:22;95536.84;;;1.73;81.28
56330;BME280;42236;48.058;10.632;2023-01-31T11:03:11;95543.19;;;1.71;80.64
56330;BME280;42236;48.058;10.632;2023-01-31T11:05:57;95543.25;;;1.82;81.58
56330;BME280;42236;48.058;10.632;2023-01-31T11:08:50;95530.50;;;1.84;80.20
56330;BME280;42236;48.058;10.632;2023-01-31T11:11:55;95518.78;;;1.95;80.20
56330;BME280;42236;48.058;10.632;2023-01-31T11:14:41;95510.00;;;1.95;79.90
56330;BME280;42236;48.058;10.632;2023-01-31T11:17:27;95524.91;;;1.96;80.77
56330;BME280;42236;48.058;10.632;2023-01-31T11:20:20;95519.31;;;1.97;80.32
56330;BME280;42236;48.058;10.632;2023-01-31T11:23:09;95499.66;;;2.03;80.96
56330;BME280;42236;48.058;10.632;2023-01-31T11:25:58;95493.81;;;2.22;81.07
56330;BME280;42236;48.058;10.632;2023-01-31T11:28:49;95479.44;;;2.33;80.20
56330;BME280;42236;48.058;10.632;2023-01-31T11:31:39;95458.41;;;2.42;80.11
56330;BME280;42236;48.058;10.632;2023-01-31T11:34:28;95465.84;;;2.40;79.77
56330;BME280;42236;48.058;10.632;2023-01-31T11:37:17;95453.88;;;2.42;79.61
56330;BME280;42236;48.058;10.632;2023-01-31T11:43:05;95454.94;;;2.51;79.01
56330;BME280;42236;48.058;10.632;2023-01-31T11:45:59;95454.91;;;2.46;79.02
56330;BME280;42236;48.058;10.632;2023-01-31T11:48:46;95447.44;;;2.48;79.09
56330;BME280;42236;48.058;10.632;2023-01-31T11:51:31;95442.94;;;2.54;79.87
56330;BME280;42236;48.058;10.632;2023-01-31T11:54:22;95435.22;;;2.52;78.92
56330;BME280;42236;48.058;10.632;2023-01-31T11:57:30;95424.81;;;2.61;78.74
56330;BME280;42236;48.058;10.632;2023-01-31T12:00:22;95413.88;;;2.63;78.75
56330;BME280;42236;48.058;10.632;2023-01-31T12:03:14;95405.34;;;2.61;78.54
56330;BME280;42236;48.058;10.632;2023-01-31T12:06:08;95401.88;;;2.60;78.45
56330;BME280;42236;48.058;10.632;2023-01-31T12:08:56;95397.34;;;2.61;78.61
56330;BME280;42236;48.058;10.632;2023-01-31T12:11:58;95411.47;;;2.56;77.69
56330;BME280;42236;48.058;10.632;2023-01-31T12:14:46;95413.09;;;2.57;77.53
56330;BME280;42236;48.058;10.632;2023-01-31T12:17:38;95413.34;;;2.55;77.83
56330;BME280;42236;48.058;10.632;2023-01-31T12:20:45;95415.25;;;2.45;77.81
56330;BME280;42236;48.058;10.632;2023-01-31T12:23:40;95417.63;;;2.46;78.09
56330;BME280;42236;48.058;10.632;2023-01-31T12:26:57;95420.59;;;2.34;77.70
56330;BME280;42236;48.058;10.632;2023-01-31T12:30:18;95416.88;;;2.30;78.19
56330;BME280;42236;48.058;10.632;2023-01-31T12:34:09;95407.03;;;2.26;78.87
56330;BME280;42236;48.058;10.632;2023-01-31T12:36:57;95408.63;;;2.22;78.21
56330;BME280;42236;48.058;10.632;2023-01-31T12:43:11;95420.63;;;2.04;79.07
56330;BME280;42236;48.058;10.632;2023-01-31T12:52:01;95395.00;;;2.39;77.53
56330;BME280;42236;48.058;10.632;2023-01-31T12:55:00;95393.69;;;2.41;77.86
56330;BME280;42236;48.058;10.632;2023-01-31T13:01:02;95390.41;;;2.70;76.48
56330;BME280;42236;48.058;10.632;2023-01-31T13:07:25;95383.44;;;2.79;74.81
56330;BME280;42236;48.058;10.632;2023-01-31T13:10:28;95384.78;;;2.82;74.37
56330;BME280;42236;48.058;10.632;2023-01-31T13:13:37;95369.88;;;2.81;74.01
56330;BME280;42236;48.058;10.632;2023-01-31T13:16:40;95359.44;;;2.84;74.60
56330;BME280;42236;48.058;10.632;2023-01-31T13:19:32;95356.19;;;3.03;74.50
56330;BME280;42236;48.058;10.632;2023-01-31T13:22:27;95345.19;;;3.09;73.41
56330;BME280;42236;48.058;10.632;2023-01-31T13:25:19;95350.84;;;3.03;72.91
56330;BME280;42236;48.058;10.632;2023-01-31T13:28:17;95346.59;;;2.96;73.58
56330;BME280;42236;48.058;10.632;2023-01-31T13:31:08;95346.66;;;2.86;72.57
56330;BME280;42236;48.058;10.632;2023-01-31T13:34:11;95329.59;;;2.87;72.45
56330;BME280;42236;48.058;10.632;2023-01-31T13:37:06;95321.63;;;2.82;72.07
56330;BME280;42236;48.058;10.632;2023-01-31T13:40:00;95328.53;;;2.88;73.75
56330;BME280;42236;48.058;10.632;2023-01-31T13:42:48;95316.28;;;2.82;73.65
56330;BME280;42236;48.058;10.632;2023-01-31T13:45:39;95326.44;;;2.75;73.00
56330;BME280;42236;48.058;10.632;2023-01-31T13:48:35;95316.38;;;2.67;73.28
56330;BME280;42236;48.058;10.632;2023-01-31T13:51:26;95337.22;;;2.49;73.58
56330;BME280;42236;48.058;10.632;2023-01-31T13:54:18;95325.00;;;2.38;73.61
56330;BME280;42236;48.058;10.632;2023-01-31T13:57:05;95326.56;;;2.39;74.68
56330;BME280;42236;48.058;10.632;2023-01-31T13:59:54;95324.72;;;2.45;74.73
56330;BME280;42236;48.058;10.632;2023-01-31T14:02:58;95321.75;;;2.46;74.55
56330;BME280;42236;48.058;10.632;2023-01-31T14:14:17;95292.44;;;2.62;75.17
56330;BME280;42236;48.058;10.632;2023-01-31T14:17:04;95302.00;;;2.63;75.50
56330;BME280;42236;48.058;10.632;2023-01-31T14:22:40;95311.84;;;2.62;75.28
56330;BME280;42236;48.058;10.632;2023-01-31T14:25:39;95307.34;;;2.58;75.10
56330;BME280;42236;48.058;10.632;2023-01-31T14:28:25;95305.78;;;2.56;74.92
56330;BME280;42236;48.058;10.632;2023-01-31T14:31:12;95312.97;;;2.51;75.22
56330;BME280;42236;48.058;10.632;2023-01-31T14:33:58;95300.72;;;2.50;75.09
56330;BME280;42236;48.058;10.632;2023-01-31T14:55:07;95310.59;;;2.49;75.18
56330;BME280;42236;48.058;10.632;2023-01-31T14:58:05;95315.13;;;2.39;75.99
56330;BME280;42236;48.058;10.632;2023-01-31T15:00:59;95314.38;;;2.33;76.36
56330;BME280;42236;48.058;10.632;2023-01-31T15:03:49;95320.75;;;2.32;76.78
56330;BME280;42236;48.058;10.632;2023-01-31T15:06:37;95303.47;;;2.34;76.75
56330;BME280;42236;48.058;10.632;2023-01-31T15:09:37;95304.53;;;2.28;76.54
56330;BME280;42236;48.058;10.632;2023-01-31T15:12:52;95306.38;;;2.33;76.23
56330;BME280;42236;48.058;10.632;2023-01-31T15:15:39;95310.09;;;2.32;77.00
56330;BME280;42236;48.058;10.632;2023-01-31T15:18:26;95316.25;;;2.32;76.87
56330;BME280;42236;48.058;10.632;2023-01-31T15:21:20;95315.72;;;2.30;77.24
56330;BME280;42236;48.058;10.632;2023-01-31T15:24:16;95312.25;;;2.30;76.95
56330;BME280;42236;48.058;10.632;2023-01-31T15:27:07;95304.28;;;2.30;77.00
56330;BME280;42236;48.058;10.632;2023-01-31T15:32:56;95299.19;;;2.28;76.18
56330;BME280;42236;48.058;10.632;2023-01-31T15:35:50;95301.31;;;2.31;75.83
56330;BME280;42236;48.058;10.632;2023-01-31T15:38:46;95293.09;;;2.28;75.49
56330;BME280;42236;48.058;10.632;2023-01-31T15:41:38;95301.31;;;2.31;75.86
56330;BME280;42236;48.058;10.632;2023-01-31T15:44:26;95301.59;;;2.30;76.53
56330;BME280;42236;48.058;10.632;2023-01-31T15:47:21;95305.88;;;2.26;75.42
56330;BME280;42236;48.058;10.632;2023-01-31T15:50:15;95313.31;;;2.24;76.13
56330;BME280;42236;48.058;10.632;2023-01-31T15:53:06;95310.69;;;2.19;76.19
56330;BME280;42236;48.058;10.632;2023-01-31T15:55:59;95313.88;;;2.21;76.24
56330;BME280;42236;48.058;10.632;2023-01-31T15:58:50;95317.59;;;2.20;76.39
56330;BME280;42236;48.058;10.632;2023-01-31T16:01:37;95310.69;;;2.19;76.65
56330;BME280;42236;48.058;10.632;2023-01-31T16:04:23;95302.16;;;2.17;76.95
56330;BME280;42236;48.058;10.632;2023-01-31T16:07:16;95280.34;;;2.09;77.07
56330;BME280;42236;48.058;10.632;2023-01-31T16:10:01;95284.09;;;2.08;77.49
56330;BME280;42236;48.058;10.632;2023-01-31T16:12:48;95278.78;;;2.08;77.36
56330;BME280;42236;48.058;10.632;2023-01-31T16:15:35;95274.25;;;2.04;77.68
56330;BME280;42236;48.058;10.632;2023-01-31T16:18:21;95289.16;;;2.05;77.46